sensor_id;sensor_type;location;lat;lon;timestamp;temperature;humidity
33699;DHT22;20032;52.436;13.312;2022-08-19T00:00:16;22.10;99.90
33699;DHT22;20032;52.436;13.312;2022-08-19T00:02:42;22.10;99.90
33699;DHT22;20032;52.436;13.312;2022-08-19T00:05:10;22.20;99.90
33699;DHT22;20032;52.436;13.312;2022-08-19T00:07:36;22.10;99.90
33699;DHT22;20032;52.436;13.312;2022-08-19T00:10:04;22.00;99.90
33699;DHT22;20032;52.436;13.312;2022-08-19T00:12:29;21.90;99.90
33699;DHT22;20032;52.436;13.312;2022-08-19T00:14:55;21.80;99.90
33699;DHT22;20032;52.436;13.312;2022-08-19T00:17:20;21.70;99.90
33699;DHT22;20032;52.436;13.312;2022-08-19T00:19:46;21.70;99.90
33699;DHT22;20032;52.436;13.312;2022-08-19T00:22:11;21.70;99.90
33699;DHT22;20032;52.436;13.312;2022-08-19T00:24:37;21.70;99.90
33699;DHT22;20032;52.436;13.312;2022-08-19T00:27:04;21.80;99.90
33699;DHT22;20032;52.436;13.312;2022-08-19T00:29:30;21.80;99.90
33699;DHT22;20032;52.436;13.312;2022-08-19T00:31:56;21.80;99.90
33699;DHT22;20032;52.436;13.312;2022-08-19T00:34:24;21.90;99.90
33699;DHT22;20032;52.436;13.312;2022-08-19T00:36:50;21.80;99.90
33699;DHT22;20032;52.436;13.312;2022-08-19T00:39:16;21.70;99.90
33699;DHT22;20032;52.436;13.312;2022-08-19T00:41:43;21.60;99.90
33699;DHT22;20032;52.436;13.312;2022-08-19T00:44:12;21.70;99.90
33699;DHT22;20032;52.436;13.312;2022-08-19T00:46:41;21.70;99.90
33699;DHT22;20032;52.436;13.312;2022-08-19T00:49:28;21.60;99.90
33699;DHT22;20032;52.436;13.312;2022-08-19T00:52:00;21.60;99.90
33699;DHT22;20032;52.436;13.312;2022-08-19T00:54:26;21.60;99.90
33699;DHT22;20032;52.436;13.312;2022-08-19T00:56:53;21.60;99.90
33699;DHT22;20032;52.436;13.312;2022-08-19T00:59:19;21.70;99.90
33699;DHT22;20032;52.436;13.312;2022-08-19T01:01:45;21.70;99.90
33699;DHT22;20032;52.436;13.312;2022-08-19T01:04:11;21.60;99.90
33699;DHT22;20032;52.436;13.312;2022-08-19T01:06:38;21.70;99.90
33699;DHT22;20032;52.436;13.312;2022-08-19T01:09:05;21.60;99.90
33699;DHT22;20032;52.436;13.312;2022-08-19T01:11:34;21.60;99.90
33699;DHT22;20032;52.436;13.312;2022-08-19T01:14:00;21.60;99.90
33699;DHT22;20032;52.436;13.312;2022-08-19T01:16:27;21.50;99.90
33699;DHT22;20032;52.436;13.312;2022-08-19T01:18:54;21.50;99.90
33699;DHT22;20032;52.436;13.312;2022-08-19T01:21:32;21.60;99.90
33699;DHT22;20032;52.436;13.312;2022-08-19T01:24:00;21.50;99.90
33699;DHT22;20032;52.436;13.312;2022-08-19T01:26:26;21.60;99.90
33699;DHT22;20032;52.436;13.312;2022-08-19T01:28:54;21.70;99.90
33699;DHT22;20032;52.436;13.312;2022-08-19T01:31:23;21.70;99.90
33699;DHT22;20032;52.436;13.312;2022-08-19T01:33:51;21.70;99.90
33699;DHT22;20032;52.436;13.312;2022-08-19T01:36:37;21.60;99.90
33699;DHT22;20032;52.436;13.312;2022-08-19T01:39:06;21.60;99.90
33699;DHT22;20032;52.436;13.312;2022-08-19T01:41:33;21.60;99.90
33699;DHT22;20032;52.436;13.312;2022-08-19T01:43:59;21.60;99.90
33699;DHT22;20032;52.436;13.312;2022-08-19T01:46:26;21.50;99.90
33699;DHT22;20032;52.436;13.312;2022-08-19T01:48:51;21.60;99.90
33699;DHT22;20032;52.436;13.312;2022-08-19T01:51:17;21.40;99.90
33699;DHT22;20032;52.436;13.312;2022-08-19T01:53:43;21.40;99.90
33699;DHT22;20032;52.436;13.312;2022-08-19T01:56:11;21.40;99.90
33699;DHT22;20032;52.436;13.312;2022-08-19T01:58:41;21.50;99.90
33699;DHT22;20032;52.436;13.312;2022-08-19T02:01:11;21.50;99.90
33699;DHT22;20032;52.436;13.312;2022-08-19T02:03:37;21.30;99.90
33699;DHT22;20032;52.436;13.312;2022-08-19T02:06:04;21.30;99.90
33699;DHT22;20032;52.436;13.312;2022-08-19T02:08:31;21.30;99.90
33699;DHT22;20032;52.436;13.312;2022-08-19T02:10:57;21.40;99.90
33699;DHT22;20032;52.436;13.312;2022-08-19T02:13:24;21.30;99.90
33699;DHT22;20032;52.436;13.312;2022-08-19T02:15:49;21.40;99.90
33699;DHT22;20032;52.436;13.312;2022-08-19T02:18:15;21.40;99.90
33699;DHT22;20032;52.436;13.312;2022-08-19T02:20:42;21.40;99.90
33699;DHT22;20032;52.436;13.312;2022-08-19T02:23:09;21.40;99.90
33699;DHT22;20032;52.436;13.312;2022-08-19T02:25:35;21.40;99.90
33699;DHT22;20032;52.436;13.312;2022-08-19T02:28:01;21.40;99.90
33699;DHT22;20032;52.436;13.312;2022-08-19T02:30:27;21.30;99.90
33699;DHT22;20032;52.436;13.312;2022-08-19T02:32:53;21.40;99.90
33699;DHT22;20032;52.436;13.312;2022-08-19T02:35:18;21.30;99.90
33699;DHT22;20032;52.436;13.312;2022-08-19T02:37:44;21.30;99.90
33699;DHT22;20032;52.436;13.312;2022-08-19T02:40:30;21.30;99.90
33699;DHT22;20032;52.436;13.312;2022-08-19T02:43:00;21.30;99.90
33699;DHT22;20032;52.436;13.312;2022-08-19T02:45:26;21.30;99.90
33699;DHT22;20032;52.436;13.312;2022-08-19T02:47:51;21.20;99.90
33699;DHT22;20032;52.436;13.312;2022-08-19T02:50:17;21.20;99.90
33699;DHT22;20032;52.436;13.312;2022-08-19T02:52:42;21.20;99.90
33699;DHT22;20032;52.436;13.312;2022-08-19T02:55:08;21.00;99.90
33699;DHT22;20032;52.436;13.312;2022-08-19T02:57:34;20.90;99.90
33699;DHT22;20032;52.436;13.312;2022-08-19T02:59:59;21.00;99.90
33699;DHT22;20032;52.436;13.312;2022-08-19T03:02:26;21.00;99.90
33699;DHT22;20032;52.436;13.312;2022-08-19T03:04:52;21.00;99.90
33699;DHT22;20032;52.436;13.312;2022-08-19T03:07:18;21.00;99.90
33699;DHT22;20032;52.436;13.312;2022-08-19T03:09:44;21.00;99.90
33699;DHT22;20032;52.436;13.312;2022-08-19T03:12:10;21.00;99.90
33699;DHT22;20032;52.436;13.312;2022-08-19T03:14:36;21.00;99.90
33699;DHT22;20032;52.436;13.312;2022-08-19T03:17:02;21.10;99.90
33699;DHT22;20032;52.436;13.312;2022-08-19T03:19:29;21.20;99.90
33699;DHT22;20032;52.436;13.312;2022-08-19T03:21:56;21.10;99.90
33699;DHT22;20032;52.436;13.312;2022-08-19T03:24:22;21.00;99.90
33699;DHT22;20032;52.436;13.312;2022-08-19T03:26:50;20.90;99.90
33699;DHT22;20032;52.436;13.312;2022-08-19T03:29:18;20.90;99.90
33699;DHT22;20032;52.436;13.312;2022-08-19T03:31:44;20.90;99.90
33699;DHT22;20032;52.436;13.312;2022-08-19T03:34:13;20.90;99.90
33699;DHT22;20032;52.436;13.312;2022-08-19T03:36:38;20.90;99.90
33699;DHT22;20032;52.436;13.312;2022-08-19T03:39:04;20.80;99.90
33699;DHT22;20032;52.436;13.312;2022-08-19T03:41:33;20.80;99.90
33699;DHT22;20032;52.436;13.312;2022-08-19T03:44:01;20.80;99.90
33699;DHT22;20032;52.436;13.312;2022-08-19T03:46:29;20.90;99.90
33699;DHT22;20032;52.436;13.312;2022-08-19T03:48:57;21.00;99.90
33699;DHT22;20032;52.436;13.312;2022-08-19T03:51:25;20.90;99.90
33699;DHT22;20032;52.436;13.312;2022-08-19T03:53:53;20.80;99.90
33699;DHT22;20032;52.436;13.312;2022-08-19T03:56:19;20.80;99.90
33699;DHT22;20032;52.436;13.312;2022-08-19T03:58:45;20.80;99.90
33699;DHT22;20032;52.436;13.312;2022-08-19T04:01:13;20.80;99.90
33699;DHT22;20032;52.436;13.312;2022-08-19T04:03:39;20.90;99.90
33699;DHT22;20032;52.436;13.312;2022-08-19T04:06:14;20.90;99.90
33699;DHT22;20032;52.436;13.312;2022-08-19T04:08:41;21.00;99.90
33699;DHT22;20032;52.436;13.312;2022-08-19T04:11:08;20.90;99.90
33699;DHT22;20032;52.436;13.312;2022-08-19T04:13:34;20.80;99.90
33699;DHT22;20032;52.436;13.312;2022-08-19T04:16:00;20.80;99.90
33699;DHT22;20032;52.436;13.312;2022-08-19T04:18:25;20.90;99.90
33699;DHT22;20032;52.436;13.312;2022-08-19T04:20:51;20.90;99.90
33699;DHT22;20032;52.436;13.312;2022-08-19T04:23:16;21.00;99.90
33699;DHT22;20032;52.436;13.312;2022-08-19T04:25:44;21.10;99.90
33699;DHT22;20032;52.436;13.312;2022-08-19T04:28:11;21.00;99.90
33699;DHT22;20032;52.436;13.312;2022-08-19T04:30:39;21.00;99.90
33699;DHT22;20032;52.436;13.312;2022-08-19T04:33:04;21.00;99.90
33699;DHT22;20032;52.436;13.312;2022-08-19T04:35:36;21.00;99.90
33699;DHT22;20032;52.436;13.312;2022-08-19T04:38:02;20.90;99.90
33699;DHT22;20032;52.436;13.312;2022-08-19T04:40:27;21.00;99.90
33699;DHT22;20032;52.436;13.312;2022-08-19T04:43:12;21.00;99.90
33699;DHT22;20032;52.436;13.312;2022-08-19T04:45:42;21.00;99.90
33699;DHT22;20032;52.436;13.312;2022-08-19T04:48:08;20.90;99.90
33699;DHT22;20032;52.436;13.312;2022-08-19T04:50:35;21.00;99.90
33699;DHT22;20032;52.436;13.312;2022-08-19T04:53:00;21.00;99.90
33699;DHT22;20032;52.436;13.312;2022-08-19T04:55:26;21.10;99.90
33699;DHT22;20032;52.436;13.312;2022-08-19T04:57:51;21.10;99.90
33699;DHT22;20032;52.436;13.312;2022-08-19T05:00:17;21.10;99.90
33699;DHT22;20032;52.436;13.312;2022-08-19T05:02:43;21.20;99.90
33699;DHT22;20032;52.436;13.312;2022-08-19T05:05:08;21.20;99.90
33699;DHT22;20032;52.436;13.312;2022-08-19T05:07:34;21.30;99.90
33699;DHT22;20032;52.436;13.312;2022-08-19T05:10:00;21.30;99.90
33699;DHT22;20032;52.436;13.312;2022-08-19T05:12:26;21.30;99.90
33699;DHT22;20032;52.436;13.312;2022-08-19T05:14:53;21.40;99.90
33699;DHT22;20032;52.436;13.312;2022-08-19T05:17:19;21.40;99.90
33699;DHT22;20032;52.436;13.312;2022-08-19T05:19:45;21.40;99.90
33699;DHT22;20032;52.436;13.312;2022-08-19T05:22:30;21.60;99.90
33699;DHT22;20032;52.436;13.312;2022-08-19T05:24:57;21.60;99.90
33699;DHT22;20032;52.436;13.312;2022-08-19T05:27:23;21.60;99.90
33699;DHT22;20032;52.436;13.312;2022-08-19T05:29:48;21.60;99.90
33699;DHT22;20032;52.436;13.312;2022-08-19T05:32:14;21.70;99.90
33699;DHT22;20032;52.436;13.312;2022-08-19T05:34:39;21.80;99.90
33699;DHT22;20032;52.436;13.312;2022-08-19T05:37:05;21.80;99.90
33699;DHT22;20032;52.436;13.312;2022-08-19T05:39:34;21.80;99.90
33699;DHT22;20032;52.436;13.312;2022-08-19T05:42:04;21.70;99.90
33699;DHT22;20032;52.436;13.312;2022-08-19T05:44:34;21.80;99.90
33699;DHT22;20032;52.436;13.312;2022-08-19T05:47:02;21.70;99.90
33699;DHT22;20032;52.436;13.312;2022-08-19T05:49:28;21.70;99.90
33699;DHT22;20032;52.436;13.312;2022-08-19T05:51:55;21.70;99.90
33699;DHT22;20032;52.436;13.312;2022-08-19T05:54:21;21.70;99.90
33699;DHT22;20032;52.436;13.312;2022-08-19T05:56:48;21.80;99.90
33699;DHT22;20032;52.436;13.312;2022-08-19T05:59:15;21.80;99.90
33699;DHT22;20032;52.436;13.312;2022-08-19T06:01:44;21.80;99.90
33699;DHT22;20032;52.436;13.312;2022-08-19T06:04:10;21.70;99.90
33699;DHT22;20032;52.436;13.312;2022-08-19T06:06:36;21.70;99.90
33699;DHT22;20032;52.436;13.312;2022-08-19T06:09:03;21.80;99.90
33699;DHT22;20032;52.436;13.312;2022-08-19T06:14:07;21.80;99.90
33699;DHT22;20032;52.436;13.312;2022-08-19T06:16:35;21.90;99.90
33699;DHT22;20032;52.436;13.312;2022-08-19T06:19:04;22.00;99.90
33699;DHT22;20032;52.436;13.312;2022-08-19T06:21:32;22.00;99.90
33699;DHT22;20032;52.436;13.312;2022-08-19T06:23:58;22.00;99.90
33699;DHT22;20032;52.436;13.312;2022-08-19T06:26:24;22.00;99.90
33699;DHT22;20032;52.436;13.312;2022-08-19T06:28:50;22.00;99.90
33699;DHT22;20032;52.436;13.312;2022-08-19T06:31:18;21.90;99.90
33699;DHT22;20032;52.436;13.312;2022-08-19T06:33:46;22.00;99.90
33699;DHT22;20032;52.436;13.312;2022-08-19T06:36:21;22.00;99.90
33699;DHT22;20032;52.436;13.312;2022-08-19T06:38:47;22.10;99.90
33699;DHT22;20032;52.436;13.312;2022-08-19T06:41:13;22.10;99.90
33699;DHT22;20032;52.436;13.312;2022-08-19T06:43:39;22.10;99.90
33699;DHT22;20032;52.436;13.312;2022-08-19T06:46:11;22.20;99.90
33699;DHT22;20032;52.436;13.312;2022-08-19T06:48:37;22.30;99.90
33699;DHT22;20032;52.436;13.312;2022-08-19T06:51:03;22.30;99.90
33699;DHT22;20032;52.436;13.312;2022-08-19T06:53:30;22.20;99.90
33699;DHT22;20032;52.436;13.312;2022-08-19T06:55:56;22.20;99.90
33699;DHT22;20032;52.436;13.312;2022-08-19T06:58:25;22.20;99.90
33699;DHT22;20032;52.436;13.312;2022-08-19T07:00:51;22.30;99.90
33699;DHT22;20032;52.436;13.312;2022-08-19T07:03:16;22.30;99.90
33699;DHT22;20032;52.436;13.312;2022-08-19T07:05:43;22.30;99.90
33699;DHT22;20032;52.436;13.312;2022-08-19T07:08:08;22.30;99.90
33699;DHT22;20032;52.436;13.312;2022-08-19T07:10:34;22.30;99.90
33699;DHT22;20032;52.436;13.312;2022-08-19T07:13:02;22.40;99.90
33699;DHT22;20032;52.436;13.312;2022-08-19T07:15:28;22.40;99.90
33699;DHT22;20032;52.436;13.312;2022-08-19T07:17:53;22.50;99.90
33699;DHT22;20032;52.436;13.312;2022-08-19T07:20:19;22.50;99.90
33699;DHT22;20032;52.436;13.312;2022-08-19T07:22:45;22.50;99.90
33699;DHT22;20032;52.436;13.312;2022-08-19T07:25:10;22.50;99.90
33699;DHT22;20032;52.436;13.312;2022-08-19T07:27:38;22.50;99.90
33699;DHT22;20032;52.436;13.312;2022-08-19T07:30:04;22.50;99.90
33699;DHT22;20032;52.436;13.312;2022-08-19T07:32:30;22.60;99.90
33699;DHT22;20032;52.436;13.312;2022-08-19T07:34:56;22.70;99.90
33699;DHT22;20032;52.436;13.312;2022-08-19T07:37:22;22.70;99.90
33699;DHT22;20032;52.436;13.312;2022-08-19T07:39:48;22.70;99.90
33699;DHT22;20032;52.436;13.312;2022-08-19T07:42:13;22.70;99.90
33699;DHT22;20032;52.436;13.312;2022-08-19T07:44:40;22.70;99.90
33699;DHT22;20032;52.436;13.312;2022-08-19T07:47:06;22.80;99.90
33699;DHT22;20032;52.436;13.312;2022-08-19T07:49:32;22.90;99.90
33699;DHT22;20032;52.436;13.312;2022-08-19T07:52:02;22.80;99.90
33699;DHT22;20032;52.436;13.312;2022-08-19T07:54:31;22.90;99.90
33699;DHT22;20032;52.436;13.312;2022-08-19T07:56:59;22.90;99.90
33699;DHT22;20032;52.436;13.312;2022-08-19T07:59:25;22.90;99.90
33699;DHT22;20032;52.436;13.312;2022-08-19T08:01:51;22.90;99.90
33699;DHT22;20032;52.436;13.312;2022-08-19T08:04:18;22.80;99.90
33699;DHT22;20032;52.436;13.312;2022-08-19T08:07:05;22.70;99.90
33699;DHT22;20032;52.436;13.312;2022-08-19T08:09:52;22.70;99.90
33699;DHT22;20032;52.436;13.312;2022-08-19T08:12:22;22.80;99.90
33699;DHT22;20032;52.436;13.312;2022-08-19T08:14:52;22.80;99.90
33699;DHT22;20032;52.436;13.312;2022-08-19T08:17:19;22.90;99.90
33699;DHT22;20032;52.436;13.312;2022-08-19T08:19:45;22.90;99.90
33699;DHT22;20032;52.436;13.312;2022-08-19T08:22:15;22.90;99.90
33699;DHT22;20032;52.436;13.312;2022-08-19T08:25:06;22.90;99.90
33699;DHT22;20032;52.436;13.312;2022-08-19T08:27:36;22.90;99.90
33699;DHT22;20032;52.436;13.312;2022-08-19T08:30:03;22.90;99.90
33699;DHT22;20032;52.436;13.312;2022-08-19T08:32:29;22.90;99.90
33699;DHT22;20032;52.436;13.312;2022-08-19T08:34:55;22.90;99.90
33699;DHT22;20032;52.436;13.312;2022-08-19T08:37:21;22.90;99.90
33699;DHT22;20032;52.436;13.312;2022-08-19T08:39:47;23.00;99.90
33699;DHT22;20032;52.436;13.312;2022-08-19T08:42:26;22.90;99.90
33699;DHT22;20032;52.436;13.312;2022-08-19T08:45:00;23.00;99.90
33699;DHT22;20032;52.436;13.312;2022-08-19T08:47:32;22.90;99.90
33699;DHT22;20032;52.436;13.312;2022-08-19T08:50:06;22.90;99.90
33699;DHT22;20032;52.436;13.312;2022-08-19T08:52:36;22.90;99.90
33699;DHT22;20032;52.436;13.312;2022-08-19T08:55:08;22.90;99.90
33699;DHT22;20032;52.436;13.312;2022-08-19T08:57:47;22.90;99.90
33699;DHT22;20032;52.436;13.312;2022-08-19T09:00:19;22.80;99.90
33699;DHT22;20032;52.436;13.312;2022-08-19T09:02:46;22.80;99.90
33699;DHT22;20032;52.436;13.312;2022-08-19T09:05:12;22.80;99.90
33699;DHT22;20032;52.436;13.312;2022-08-19T09:10:53;22.80;99.90
33699;DHT22;20032;52.436;13.312;2022-08-19T09:13:29;22.80;99.90
33699;DHT22;20032;52.436;13.312;2022-08-19T09:15:58;22.80;99.90
33699;DHT22;20032;52.436;13.312;2022-08-19T09:18:26;22.80;99.90
33699;DHT22;20032;52.436;13.312;2022-08-19T09:21:03;22.80;99.90
33699;DHT22;20032;52.436;13.312;2022-08-19T09:23:28;22.90;99.90
33699;DHT22;20032;52.436;13.312;2022-08-19T09:25:54;22.90;99.90
33699;DHT22;20032;52.436;13.312;2022-08-19T09:28:19;22.90;99.90
33699;DHT22;20032;52.436;13.312;2022-08-19T09:30:45;22.80;99.90
33699;DHT22;20032;52.436;13.312;2022-08-19T09:33:11;23.00;99.90
33699;DHT22;20032;52.436;13.312;2022-08-19T09:35:38;23.00;99.90
33699;DHT22;20032;52.436;13.312;2022-08-19T09:38:04;22.90;99.90
33699;DHT22;20032;52.436;13.312;2022-08-19T09:40:30;22.90;99.90
33699;DHT22;20032;52.436;13.312;2022-08-19T09:42:57;23.00;99.90
33699;DHT22;20032;52.436;13.312;2022-08-19T09:45:23;23.10;99.90
33699;DHT22;20032;52.436;13.312;2022-08-19T09:47:50;23.10;99.90
33699;DHT22;20032;52.436;13.312;2022-08-19T09:50:17;23.10;99.90
33699;DHT22;20032;52.436;13.312;2022-08-19T09:52:43;23.20;99.90
33699;DHT22;20032;52.436;13.312;2022-08-19T09:55:10;23.20;99.90
33699;DHT22;20032;52.436;13.312;2022-08-19T09:57:36;23.10;99.90
33699;DHT22;20032;52.436;13.312;2022-08-19T10:00:05;23.20;99.90
33699;DHT22;20032;52.436;13.312;2022-08-19T10:02:30;23.20;99.90
33699;DHT22;20032;52.436;13.312;2022-08-19T10:04:56;23.20;99.90
33699;DHT22;20032;52.436;13.312;2022-08-19T10:07:42;23.20;99.90
33699;DHT22;20032;52.436;13.312;2022-08-19T10:10:08;23.20;99.90
33699;DHT22;20032;52.436;13.312;2022-08-19T10:12:35;23.10;99.90
33699;DHT22;20032;52.436;13.312;2022-08-19T10:15:01;23.10;99.90
33699;DHT22;20032;52.436;13.312;2022-08-19T10:17:27;23.10;99.90
33699;DHT22;20032;52.436;13.312;2022-08-19T10:19:53;23.20;99.90
33699;DHT22;20032;52.436;13.312;2022-08-19T10:22:19;23.30;99.90
33699;DHT22;20032;52.436;13.312;2022-08-19T10:24:46;23.40;99.90
33699;DHT22;20032;52.436;13.312;2022-08-19T10:27:12;23.50;99.90
33699;DHT22;20032;52.436;13.312;2022-08-19T10:29:39;23.50;99.90
33699;DHT22;20032;52.436;13.312;2022-08-19T10:32:06;23.60;99.90
33699;DHT22;20032;52.436;13.312;2022-08-19T10:34:34;23.80;99.90
33699;DHT22;20032;52.436;13.312;2022-08-19T10:37:02;23.70;99.90
33699;DHT22;20032;52.436;13.312;2022-08-19T10:39:29;23.80;99.90
33699;DHT22;20032;52.436;13.312;2022-08-19T10:41:56;23.80;99.90
33699;DHT22;20032;52.436;13.312;2022-08-19T10:44:22;23.80;99.90
33699;DHT22;20032;52.436;13.312;2022-08-19T10:46:49;23.80;99.90
33699;DHT22;20032;52.436;13.312;2022-08-19T10:49:14;23.80;99.90
33699;DHT22;20032;52.436;13.312;2022-08-19T10:51:41;23.70;99.90
33699;DHT22;20032;52.436;13.312;2022-08-19T10:54:27;23.70;99.90
33699;DHT22;20032;52.436;13.312;2022-08-19T10:57:12;23.70;99.90
33699;DHT22;20032;52.436;13.312;2022-08-19T10:59:38;23.60;99.90
33699;DHT22;20032;52.436;13.312;2022-08-19T11:02:06;23.60;99.90
33699;DHT22;20032;52.436;13.312;2022-08-19T11:04:32;23.50;99.90
33699;DHT22;20032;52.436;13.312;2022-08-19T11:06:58;23.60;99.90
33699;DHT22;20032;52.436;13.312;2022-08-19T11:09:25;23.60;99.90
33699;DHT22;20032;52.436;13.312;2022-08-19T11:11:53;23.40;99.90
33699;DHT22;20032;52.436;13.312;2022-08-19T11:14:20;23.40;99.90
33699;DHT22;20032;52.436;13.312;2022-08-19T11:16:47;23.40;99.90
33699;DHT22;20032;52.436;13.312;2022-08-19T11:19:14;23.30;99.90
33699;DHT22;20032;52.436;13.312;2022-08-19T11:21:43;23.30;99.90
33699;DHT22;20032;52.436;13.312;2022-08-19T11:24:12;23.30;99.90
33699;DHT22;20032;52.436;13.312;2022-08-19T11:26:40;23.30;99.90
33699;DHT22;20032;52.436;13.312;2022-08-19T11:29:08;23.40;99.90
33699;DHT22;20032;52.436;13.312;2022-08-19T11:31:40;23.40;99.90
33699;DHT22;20032;52.436;13.312;2022-08-19T11:34:09;23.40;99.90
33699;DHT22;20032;52.436;13.312;2022-08-19T11:36:38;23.30;99.90
33699;DHT22;20032;52.436;13.312;2022-08-19T11:39:06;23.30;99.90
33699;DHT22;20032;52.436;13.312;2022-08-19T11:41:31;23.40;99.90
33699;DHT22;20032;52.436;13.312;2022-08-19T11:43:57;23.40;99.90
33699;DHT22;20032;52.436;13.312;2022-08-19T11:46:24;23.40;99.90
33699;DHT22;20032;52.436;13.312;2022-08-19T11:48:51;23.30;99.90
33699;DHT22;20032;52.436;13.312;2022-08-19T11:51:20;23.40;99.90
33699;DHT22;20032;52.436;13.312;2022-08-19T11:53:47;23.60;99.90
33699;DHT22;20032;52.436;13.312;2022-08-19T11:56:13;23.60;99.90
33699;DHT22;20032;52.436;13.312;2022-08-19T11:58:38;23.60;99.90
33699;DHT22;20032;52.436;13.312;2022-08-19T12:01:06;23.50;99.90
33699;DHT22;20032;52.436;13.312;2022-08-19T12:03:33;23.60;99.90
33699;DHT22;20032;52.436;13.312;2022-08-19T12:06:03;23.70;99.90
33699;DHT22;20032;52.436;13.312;2022-08-19T12:08:30;23.60;99.90
33699;DHT22;20032;52.436;13.312;2022-08-19T12:10:56;23.60;99.90
33699;DHT22;20032;52.436;13.312;2022-08-19T12:13:21;23.50;99.90
33699;DHT22;20032;52.436;13.312;2022-08-19T12:15:47;23.50;99.90
33699;DHT22;20032;52.436;13.312;2022-08-19T12:18:13;23.40;99.90
33699;DHT22;20032;52.436;13.312;2022-08-19T12:20:41;23.40;99.90
33699;DHT22;20032;52.436;13.312;2022-08-19T12:23:08;23.40;99.90
33699;DHT22;20032;52.436;13.312;2022-08-19T12:25:37;23.50;99.90
33699;DHT22;20032;52.436;13.312;2022-08-19T12:28:03;23.50;99.90
33699;DHT22;20032;52.436;13.312;2022-08-19T12:30:29;23.50;99.90
33699;DHT22;20032;52.436;13.312;2022-08-19T12:32:54;23.50;99.90
33699;DHT22;20032;52.436;13.312;2022-08-19T12:35:20;23.50;99.90
33699;DHT22;20032;52.436;13.312;2022-08-19T12:37:47;23.40;99.90
33699;DHT22;20032;52.436;13.312;2022-08-19T12:40:13;23.40;99.90
33699;DHT22;20032;52.436;13.312;2022-08-19T12:42:40;23.40;99.90
33699;DHT22;20032;52.436;13.312;2022-08-19T12:45:08;23.40;99.90
33699;DHT22;20032;52.436;13.312;2022-08-19T12:47:35;23.50;99.90
33699;DHT22;20032;52.436;13.312;2022-08-19T12:50:01;23.50;99.90
33699;DHT22;20032;52.436;13.312;2022-08-19T12:52:26;23.40;99.90
33699;DHT22;20032;52.436;13.312;2022-08-19T12:54:55;23.50;99.90
33699;DHT22;20032;52.436;13.312;2022-08-19T12:57:22;23.50;99.90
33699;DHT22;20032;52.436;13.312;2022-08-19T12:59:52;23.50;99.90
33699;DHT22;20032;52.436;13.312;2022-08-19T13:02:18;23.50;99.90
33699;DHT22;20032;52.436;13.312;2022-08-19T13:04:45;23.50;99.90
33699;DHT22;20032;52.436;13.312;2022-08-19T13:07:10;23.50;99.90
33699;DHT22;20032;52.436;13.312;2022-08-19T13:09:36;23.50;99.90
33699;DHT22;20032;52.436;13.312;2022-08-19T13:12:02;23.50;99.90
33699;DHT22;20032;52.436;13.312;2022-08-19T13:14:28;23.60;99.90
33699;DHT22;20032;52.436;13.312;2022-08-19T13:16:56;23.50;99.90
33699;DHT22;20032;52.436;13.312;2022-08-19T13:19:22;23.60;99.90
33699;DHT22;20032;52.436;13.312;2022-08-19T13:21:50;23.60;99.90
33699;DHT22;20032;52.436;13.312;2022-08-19T13:24:16;23.60;99.90
33699;DHT22;20032;52.436;13.312;2022-08-19T13:26:42;23.60;99.90
33699;DHT22;20032;52.436;13.312;2022-08-19T13:29:07;23.60;99.90
33699;DHT22;20032;52.436;13.312;2022-08-19T13:31:53;23.60;99.90
33699;DHT22;20032;52.436;13.312;2022-08-19T13:34:38;23.70;99.90
33699;DHT22;20032;52.436;13.312;2022-08-19T13:37:05;23.60;99.90
33699;DHT22;20032;52.436;13.312;2022-08-19T13:39:32;23.70;99.90
33699;DHT22;20032;52.436;13.312;2022-08-19T13:41:58;23.80;99.90
33699;DHT22;20032;52.436;13.312;2022-08-19T13:44:26;23.80;99.90
33699;DHT22;20032;52.436;13.312;2022-08-19T13:46:55;23.90;99.90
33699;DHT22;20032;52.436;13.312;2022-08-19T13:49:24;23.80;99.90
33699;DHT22;20032;52.436;13.312;2022-08-19T13:51:50;23.80;99.90
33699;DHT22;20032;52.436;13.312;2022-08-19T13:54:15;23.80;99.90
33699;DHT22;20032;52.436;13.312;2022-08-19T13:56:43;24.00;99.90
33699;DHT22;20032;52.436;13.312;2022-08-19T13:59:09;24.10;99.90
33699;DHT22;20032;52.436;13.312;2022-08-19T14:01:35;24.20;99.90
33699;DHT22;20032;52.436;13.312;2022-08-19T14:04:01;24.40;99.90
33699;DHT22;20032;52.436;13.312;2022-08-19T14:06:27;24.40;99.90
33699;DHT22;20032;52.436;13.312;2022-08-19T14:08:53;24.40;99.90
33699;DHT22;20032;52.436;13.312;2022-08-19T14:11:18;24.40;99.90
33699;DHT22;20032;52.436;13.312;2022-08-19T14:13:44;24.30;99.90
33699;DHT22;20032;52.436;13.312;2022-08-19T14:16:11;24.10;99.90
33699;DHT22;20032;52.436;13.312;2022-08-19T14:18:37;24.10;99.90
33699;DHT22;20032;52.436;13.312;2022-08-19T14:21:03;24.20;99.90
33699;DHT22;20032;52.436;13.312;2022-08-19T14:23:30;24.20;99.90
33699;DHT22;20032;52.436;13.312;2022-08-19T14:26:11;24.20;99.90
33699;DHT22;20032;52.436;13.312;2022-08-19T14:28:38;24.30;99.90
33699;DHT22;20032;52.436;13.312;2022-08-19T14:31:07;24.30;99.90
33699;DHT22;20032;52.436;13.312;2022-08-19T14:33:33;24.20;99.90
33699;DHT22;20032;52.436;13.312;2022-08-19T14:35:58;24.10;99.90
33699;DHT22;20032;52.436;13.312;2022-08-19T14:38:25;24.00;99.90
33699;DHT22;20032;52.436;13.312;2022-08-19T14:40:51;24.10;99.90
33699;DHT22;20032;52.436;13.312;2022-08-19T14:43:17;23.90;99.90
33699;DHT22;20032;52.436;13.312;2022-08-19T14:45:43;24.00;99.90
33699;DHT22;20032;52.436;13.312;2022-08-19T14:48:08;24.00;99.90
33699;DHT22;20032;52.436;13.312;2022-08-19T14:50:34;24.00;99.90
33699;DHT22;20032;52.436;13.312;2022-08-19T14:53:04;24.00;99.90
33699;DHT22;20032;52.436;13.312;2022-08-19T14:55:30;24.00;99.90
33699;DHT22;20032;52.436;13.312;2022-08-19T14:57:57;24.10;99.90
33699;DHT22;20032;52.436;13.312;2022-08-19T15:00:23;24.00;99.90
33699;DHT22;20032;52.436;13.312;2022-08-19T15:02:50;23.90;99.90
33699;DHT22;20032;52.436;13.312;2022-08-19T15:05:15;23.90;99.90
33699;DHT22;20032;52.436;13.312;2022-08-19T15:07:42;23.80;99.90
33699;DHT22;20032;52.436;13.312;2022-08-19T15:10:09;23.80;99.90
33699;DHT22;20032;52.436;13.312;2022-08-19T15:12:37;23.70;99.90
33699;DHT22;20032;52.436;13.312;2022-08-19T15:15:07;23.60;99.90
33699;DHT22;20032;52.436;13.312;2022-08-19T15:17:33;23.50;99.90
33699;DHT22;20032;52.436;13.312;2022-08-19T15:20:00;23.50;99.90
33699;DHT22;20032;52.436;13.312;2022-08-19T15:22:27;23.50;99.90